Terminal Aerodrome Forecast
Issued by NWS

Home | Current Version | Previous Version | Text Only | Print | Product List | Glossary On
Versions: 1 2 3 4 5 6 7 8 9 10 11 12 13 14 15 16 17 18 19 20 21
519
FTUS43 KLSX 141722
TAFUIN
TAF
KUIN 141722Z 1418/1518 15014KT P6SM OVC025
     FM141900 17015KT P6SM OVC015
     FM150000 17006KT P6SM OVC008
     FM150700 VRB04KT 5SM BR SCT008 OVC030=

USA.gov is the U.S. government's official web portal to all federal, state and local government web resources and services.